sensor_id;sensor_type;location;lat;lon;timestamp;temperature;humidity
23081;DHT22;72373;50.562;8.498;2024-02-15T00:01:33;10.70;99.90
23081;DHT22;72373;50.562;8.498;2024-02-15T00:03:59;10.60;99.90
23081;DHT22;72373;50.562;8.498;2024-02-15T00:06:24;10.60;99.90
23081;DHT22;72373;50.562;8.498;2024-02-15T00:08:50;10.60;99.90
23081;DHT22;72373;50.562;8.498;2024-02-15T00:11:17;10.60;99.90
23081;DHT22;72373;50.562;8.498;2024-02-15T00:13:43;10.50;99.90
23081;DHT22;72373;50.562;8.498;2024-02-15T00:16:13;10.50;99.90
23081;DHT22;72373;50.562;8.498;2024-02-15T00:18:39;10.40;99.90
23081;DHT22;72373;50.562;8.498;2024-02-15T00:21:05;10.30;99.90
23081;DHT22;72373;50.562;8.498;2024-02-15T00:23:30;10.30;99.90
23081;DHT22;72373;50.562;8.498;2024-02-15T00:25:57;10.30;99.90
23081;DHT22;72373;50.562;8.498;2024-02-15T00:30:49;10.30;99.90
23081;DHT22;72373;50.562;8.498;2024-02-15T00:33:15;10.30;99.90
23081;DHT22;72373;50.562;8.498;2024-02-15T00:35:41;10.20;99.90
23081;DHT22;72373;50.562;8.498;2024-02-15T00:38:06;10.20;99.90
23081;DHT22;72373;50.562;8.498;2024-02-15T00:40:32;10.20;99.90
23081;DHT22;72373;50.562;8.498;2024-02-15T00:42:58;10.20;99.90
23081;DHT22;72373;50.562;8.498;2024-02-15T00:45:23;10.20;99.90
23081;DHT22;72373;50.562;8.498;2024-02-15T00:47:49;10.20;99.90
23081;DHT22;72373;50.562;8.498;2024-02-15T00:50:15;10.10;99.90
23081;DHT22;72373;50.562;8.498;2024-02-15T00:52:40;10.00;99.90
23081;DHT22;72373;50.562;8.498;2024-02-15T00:55:06;10.00;99.90
23081;DHT22;72373;50.562;8.498;2024-02-15T00:57:32;9.90;99.90
23081;DHT22;72373;50.562;8.498;2024-02-15T00:59:57;9.90;99.90
23081;DHT22;72373;50.562;8.498;2024-02-15T01:02:23;9.70;99.90
23081;DHT22;72373;50.562;8.498;2024-02-15T01:07:15;9.60;99.90
23081;DHT22;72373;50.562;8.498;2024-02-15T01:09:41;9.60;99.90
23081;DHT22;72373;50.562;8.498;2024-02-15T01:12:06;9.60;99.90
23081;DHT22;72373;50.562;8.498;2024-02-15T01:14:32;9.50;99.90
23081;DHT22;72373;50.562;8.498;2024-02-15T01:16:57;9.50;99.90
23081;DHT22;72373;50.562;8.498;2024-02-15T01:19:23;9.60;99.90
23081;DHT22;72373;50.562;8.498;2024-02-15T01:21:49;9.60;99.90
23081;DHT22;72373;50.562;8.498;2024-02-15T01:24:14;9.70;99.90
23081;DHT22;72373;50.562;8.498;2024-02-15T01:26:40;9.70;99.90
23081;DHT22;72373;50.562;8.498;2024-02-15T01:29:05;9.80;99.90
23081;DHT22;72373;50.562;8.498;2024-02-15T01:31:31;9.80;99.90
23081;DHT22;72373;50.562;8.498;2024-02-15T01:33:56;9.80;99.90
23081;DHT22;72373;50.562;8.498;2024-02-15T01:36:22;9.80;99.90
23081;DHT22;72373;50.562;8.498;2024-02-15T01:38:48;9.90;99.90
23081;DHT22;72373;50.562;8.498;2024-02-15T01:41:13;9.90;99.90
23081;DHT22;72373;50.562;8.498;2024-02-15T01:43:43;9.90;99.90
23081;DHT22;72373;50.562;8.498;2024-02-15T01:46:10;9.90;99.90
23081;DHT22;72373;50.562;8.498;2024-02-15T01:48:37;9.90;99.90
23081;DHT22;72373;50.562;8.498;2024-02-15T01:51:06;9.80;99.90
23081;DHT22;72373;50.562;8.498;2024-02-15T01:53:32;9.80;99.90
23081;DHT22;72373;50.562;8.498;2024-02-15T01:55:58;9.80;99.90
23081;DHT22;72373;50.562;8.498;2024-02-15T01:58:25;9.80;99.90
23081;DHT22;72373;50.562;8.498;2024-02-15T02:00:53;9.90;99.90
23081;DHT22;72373;50.562;8.498;2024-02-15T02:03:21;9.80;99.90
23081;DHT22;72373;50.562;8.498;2024-02-15T02:08:12;9.80;99.90
23081;DHT22;72373;50.562;8.498;2024-02-15T02:10:39;9.80;99.90
23081;DHT22;72373;50.562;8.498;2024-02-15T02:13:05;9.80;99.90
23081;DHT22;72373;50.562;8.498;2024-02-15T02:15:34;9.80;99.90
23081;DHT22;72373;50.562;8.498;2024-02-15T02:18:00;9.70;99.90
23081;DHT22;72373;50.562;8.498;2024-02-15T02:20:26;9.80;99.90
23081;DHT22;72373;50.562;8.498;2024-02-15T02:22:54;9.70;99.90
23081;DHT22;72373;50.562;8.498;2024-02-15T02:25:23;9.80;99.90
23081;DHT22;72373;50.562;8.498;2024-02-15T02:27:51;9.80;99.90
23081;DHT22;72373;50.562;8.498;2024-02-15T02:30:17;9.80;99.90
23081;DHT22;72373;50.562;8.498;2024-02-15T02:32:45;9.80;99.90
23081;DHT22;72373;50.562;8.498;2024-02-15T02:35:11;9.70;99.90
23081;DHT22;72373;50.562;8.498;2024-02-15T02:37:39;9.70;99.90
23081;DHT22;72373;50.562;8.498;2024-02-15T02:40:06;9.70;99.90
23081;DHT22;72373;50.562;8.498;2024-02-15T02:42:55;9.70;99.90
23081;DHT22;72373;50.562;8.498;2024-02-15T02:45:25;9.70;99.90
23081;DHT22;72373;50.562;8.498;2024-02-15T02:47:51;9.70;99.90
23081;DHT22;72373;50.562;8.498;2024-02-15T02:50:17;9.70;99.90
23081;DHT22;72373;50.562;8.498;2024-02-15T02:52:44;9.70;99.90
23081;DHT22;72373;50.562;8.498;2024-02-15T02:55:10;9.80;99.90
23081;DHT22;72373;50.562;8.498;2024-02-15T02:57:37;9.80;99.90
23081;DHT22;72373;50.562;8.498;2024-02-15T03:00:07;9.80;99.90
23081;DHT22;72373;50.562;8.498;2024-02-15T03:02:34;9.80;99.90
23081;DHT22;72373;50.562;8.498;2024-02-15T03:05:06;9.80;99.90
23081;DHT22;72373;50.562;8.498;2024-02-15T03:07:33;9.90;99.90
23081;DHT22;72373;50.562;8.498;2024-02-15T03:10:00;9.90;99.90
23081;DHT22;72373;50.562;8.498;2024-02-15T03:12:25;9.90;99.90
23081;DHT22;72373;50.562;8.498;2024-02-15T03:14:52;9.90;99.90
23081;DHT22;72373;50.562;8.498;2024-02-15T03:17:17;9.90;99.90
23081;DHT22;72373;50.562;8.498;2024-02-15T03:19:43;9.90;99.90
23081;DHT22;72373;50.562;8.498;2024-02-15T03:22:08;9.70;99.90
23081;DHT22;72373;50.562;8.498;2024-02-15T03:24:34;9.90;99.90
23081;DHT22;72373;50.562;8.498;2024-02-15T03:26:59;9.90;99.90
23081;DHT22;72373;50.562;8.498;2024-02-15T03:29:25;9.90;99.90
23081;DHT22;72373;50.562;8.498;2024-02-15T03:31:51;9.90;99.90
23081;DHT22;72373;50.562;8.498;2024-02-15T03:34:19;9.90;99.90
23081;DHT22;72373;50.562;8.498;2024-02-15T03:36:47;9.90;99.90
23081;DHT22;72373;50.562;8.498;2024-02-15T03:39:17;9.90;99.90
23081;DHT22;72373;50.562;8.498;2024-02-15T03:41:42;9.90;99.90
23081;DHT22;72373;50.562;8.498;2024-02-15T03:44:11;9.90;99.90
23081;DHT22;72373;50.562;8.498;2024-02-15T03:46:37;9.90;99.90
23081;DHT22;72373;50.562;8.498;2024-02-15T03:49:02;9.90;99.90
23081;DHT22;72373;50.562;8.498;2024-02-15T03:51:28;9.90;99.90
23081;DHT22;72373;50.562;8.498;2024-02-15T03:53:54;9.90;99.90
23081;DHT22;72373;50.562;8.498;2024-02-15T03:56:19;9.80;99.90
23081;DHT22;72373;50.562;8.498;2024-02-15T03:58:46;9.80;99.90
23081;DHT22;72373;50.562;8.498;2024-02-15T04:01:12;9.80;99.90
23081;DHT22;72373;50.562;8.498;2024-02-15T04:03:40;9.80;99.90
23081;DHT22;72373;50.562;8.498;2024-02-15T04:06:06;9.80;99.90
23081;DHT22;72373;50.562;8.498;2024-02-15T04:08:31;9.90;99.90
23081;DHT22;72373;50.562;8.498;2024-02-15T04:10:57;9.80;99.90
23081;DHT22;72373;50.562;8.498;2024-02-15T04:13:23;9.80;99.90
23081;DHT22;72373;50.562;8.498;2024-02-15T04:15:49;9.80;99.90
23081;DHT22;72373;50.562;8.498;2024-02-15T04:18:16;9.80;99.90
23081;DHT22;72373;50.562;8.498;2024-02-15T04:20:43;9.80;99.90
23081;DHT22;72373;50.562;8.498;2024-02-15T04:23:13;9.70;99.90
23081;DHT22;72373;50.562;8.498;2024-02-15T04:25:38;9.70;99.90
23081;DHT22;72373;50.562;8.498;2024-02-15T04:28:04;9.80;99.90
23081;DHT22;72373;50.562;8.498;2024-02-15T04:30:30;9.80;99.90
23081;DHT22;72373;50.562;8.498;2024-02-15T04:32:56;9.80;99.90
23081;DHT22;72373;50.562;8.498;2024-02-15T04:35:21;9.80;99.90
23081;DHT22;72373;50.562;8.498;2024-02-15T04:37:48;9.80;99.90
23081;DHT22;72373;50.562;8.498;2024-02-15T04:40:14;9.80;99.90
23081;DHT22;72373;50.562;8.498;2024-02-15T04:42:40;9.80;99.90
23081;DHT22;72373;50.562;8.498;2024-02-15T04:45:07;9.80;99.90
23081;DHT22;72373;50.562;8.498;2024-02-15T04:47:35;9.80;99.90
23081;DHT22;72373;50.562;8.498;2024-02-15T04:50:00;9.80;99.90
23081;DHT22;72373;50.562;8.498;2024-02-15T04:52:28;9.90;99.90
23081;DHT22;72373;50.562;8.498;2024-02-15T04:54:53;9.80;99.90
23081;DHT22;72373;50.562;8.498;2024-02-15T04:57:24;9.90;99.90
23081;DHT22;72373;50.562;8.498;2024-02-15T04:59:49;9.90;99.90
23081;DHT22;72373;50.562;8.498;2024-02-15T05:02:15;10.10;99.90
23081;DHT22;72373;50.562;8.498;2024-02-15T05:04:40;9.90;99.90
23081;DHT22;72373;50.562;8.498;2024-02-15T05:07:08;9.90;99.90
23081;DHT22;72373;50.562;8.498;2024-02-15T05:09:34;9.90;99.90
23081;DHT22;72373;50.562;8.498;2024-02-15T05:12:00;9.90;99.90
23081;DHT22;72373;50.562;8.498;2024-02-15T05:14:28;9.90;99.90
23081;DHT22;72373;50.562;8.498;2024-02-15T05:16:53;9.90;99.90
23081;DHT22;72373;50.562;8.498;2024-02-15T05:19:19;9.90;99.90
23081;DHT22;72373;50.562;8.498;2024-02-15T05:21:45;9.90;99.90
23081;DHT22;72373;50.562;8.498;2024-02-15T05:24:15;9.90;99.90
23081;DHT22;72373;50.562;8.498;2024-02-15T05:26:41;9.90;99.90
23081;DHT22;72373;50.562;8.498;2024-02-15T05:29:09;9.90;99.90
23081;DHT22;72373;50.562;8.498;2024-02-15T05:31:35;9.90;99.90
23081;DHT22;72373;50.562;8.498;2024-02-15T05:34:04;9.90;99.90
23081;DHT22;72373;50.562;8.498;2024-02-15T05:36:29;9.90;99.90
23081;DHT22;72373;50.562;8.498;2024-02-15T05:38:55;9.90;99.90
23081;DHT22;72373;50.562;8.498;2024-02-15T05:41:22;9.90;99.90
23081;DHT22;72373;50.562;8.498;2024-02-15T05:43:48;9.90;99.90
23081;DHT22;72373;50.562;8.498;2024-02-15T05:46:14;9.90;99.90
23081;DHT22;72373;50.562;8.498;2024-02-15T05:48:40;9.90;99.90
23081;DHT22;72373;50.562;8.498;2024-02-15T05:51:09;9.90;99.90
23081;DHT22;72373;50.562;8.498;2024-02-15T05:53:35;10.00;99.90
23081;DHT22;72373;50.562;8.498;2024-02-15T05:56:05;10.00;99.90
23081;DHT22;72373;50.562;8.498;2024-02-15T05:58:31;10.00;99.90
23081;DHT22;72373;50.562;8.498;2024-02-15T06:00:58;10.00;99.90
23081;DHT22;72373;50.562;8.498;2024-02-15T06:03:30;10.00;99.90
23081;DHT22;72373;50.562;8.498;2024-02-15T06:05:57;10.00;99.90
23081;DHT22;72373;50.562;8.498;2024-02-15T06:08:24;10.00;99.90
23081;DHT22;72373;50.562;8.498;2024-02-15T06:10:51;10.00;99.90
23081;DHT22;72373;50.562;8.498;2024-02-15T06:15:43;10.00;99.90
23081;DHT22;72373;50.562;8.498;2024-02-15T06:18:12;10.00;99.90
23081;DHT22;72373;50.562;8.498;2024-02-15T06:20:40;9.90;99.90
23081;DHT22;72373;50.562;8.498;2024-02-15T06:23:06;9.80;99.90
23081;DHT22;72373;50.562;8.498;2024-02-15T06:25:34;9.80;99.90
23081;DHT22;72373;50.562;8.498;2024-02-15T06:28:00;9.70;99.90
23081;DHT22;72373;50.562;8.498;2024-02-15T06:30:28;9.60;99.90
23081;DHT22;72373;50.562;8.498;2024-02-15T06:33:12;9.60;99.90
23081;DHT22;72373;50.562;8.498;2024-02-15T06:35:57;9.60;99.90
23081;DHT22;72373;50.562;8.498;2024-02-15T06:38:41;9.50;99.90
23081;DHT22;72373;50.562;8.498;2024-02-15T06:41:29;9.60;99.90
23081;DHT22;72373;50.562;8.498;2024-02-15T06:43:55;9.50;99.90
23081;DHT22;72373;50.562;8.498;2024-02-15T06:46:21;9.50;99.90
23081;DHT22;72373;50.562;8.498;2024-02-15T06:48:46;9.40;99.90
23081;DHT22;72373;50.562;8.498;2024-02-15T06:51:15;9.60;99.90
23081;DHT22;72373;50.562;8.498;2024-02-15T06:53:41;9.60;99.90
23081;DHT22;72373;50.562;8.498;2024-02-15T06:56:10;9.70;99.90
23081;DHT22;72373;50.562;8.498;2024-02-15T06:58:36;9.70;99.90
23081;DHT22;72373;50.562;8.498;2024-02-15T07:01:01;9.70;99.90
23081;DHT22;72373;50.562;8.498;2024-02-15T07:03:28;9.80;99.90
23081;DHT22;72373;50.562;8.498;2024-02-15T07:05:55;9.80;99.90
23081;DHT22;72373;50.562;8.498;2024-02-15T07:08:21;9.80;99.90
23081;DHT22;72373;50.562;8.498;2024-02-15T07:10:48;9.90;99.90
23081;DHT22;72373;50.562;8.498;2024-02-15T07:13:14;9.90;99.90
23081;DHT22;72373;50.562;8.498;2024-02-15T07:15:39;9.90;99.90
23081;DHT22;72373;50.562;8.498;2024-02-15T07:18:06;10.00;99.90
23081;DHT22;72373;50.562;8.498;2024-02-15T07:20:32;10.00;99.90
23081;DHT22;72373;50.562;8.498;2024-02-15T07:22:58;10.00;99.90
23081;DHT22;72373;50.562;8.498;2024-02-15T07:25:24;10.00;99.90
23081;DHT22;72373;50.562;8.498;2024-02-15T07:27:49;10.00;99.90
23081;DHT22;72373;50.562;8.498;2024-02-15T07:30:15;10.00;99.90
23081;DHT22;72373;50.562;8.498;2024-02-15T07:32:40;10.00;99.90
23081;DHT22;72373;50.562;8.498;2024-02-15T07:35:06;10.10;99.90
23081;DHT22;72373;50.562;8.498;2024-02-15T07:37:33;10.10;99.90
23081;DHT22;72373;50.562;8.498;2024-02-15T07:39:59;10.10;99.90
23081;DHT22;72373;50.562;8.498;2024-02-15T07:42:25;10.10;99.90
23081;DHT22;72373;50.562;8.498;2024-02-15T07:44:51;10.20;99.90
23081;DHT22;72373;50.562;8.498;2024-02-15T07:47:18;10.20;99.90
23081;DHT22;72373;50.562;8.498;2024-02-15T07:49:46;10.20;99.90
23081;DHT22;72373;50.562;8.498;2024-02-15T07:52:11;10.40;99.90
23081;DHT22;72373;50.562;8.498;2024-02-15T07:54:39;10.30;99.90
23081;DHT22;72373;50.562;8.498;2024-02-15T07:57:04;10.40;99.90
23081;DHT22;72373;50.562;8.498;2024-02-15T07:59:30;10.40;99.90
23081;DHT22;72373;50.562;8.498;2024-02-15T08:01:56;10.40;99.90
23081;DHT22;72373;50.562;8.498;2024-02-15T08:04:21;10.50;99.90
23081;DHT22;72373;50.562;8.498;2024-02-15T08:09:17;10.60;99.90
23081;DHT22;72373;50.562;8.498;2024-02-15T08:11:43;10.70;99.90
23081;DHT22;72373;50.562;8.498;2024-02-15T08:14:09;10.70;99.90
23081;DHT22;72373;50.562;8.498;2024-02-15T08:16:37;10.70;99.90
23081;DHT22;72373;50.562;8.498;2024-02-15T08:19:03;10.80;99.90
23081;DHT22;72373;50.562;8.498;2024-02-15T08:21:31;10.90;99.90
23081;DHT22;72373;50.562;8.498;2024-02-15T08:24:06;10.90;99.90
23081;DHT22;72373;50.562;8.498;2024-02-15T08:28:57;11.00;99.90
23081;DHT22;72373;50.562;8.498;2024-02-15T08:31:23;11.00;99.90
23081;DHT22;72373;50.562;8.498;2024-02-15T08:33:49;11.10;99.90
23081;DHT22;72373;50.562;8.498;2024-02-15T08:36:14;11.10;99.90
23081;DHT22;72373;50.562;8.498;2024-02-15T08:38:40;11.10;99.90
23081;DHT22;72373;50.562;8.498;2024-02-15T08:41:06;11.20;99.90
23081;DHT22;72373;50.562;8.498;2024-02-15T08:43:33;11.20;99.90
23081;DHT22;72373;50.562;8.498;2024-02-15T08:45:59;11.20;99.90
23081;DHT22;72373;50.562;8.498;2024-02-15T08:48:26;11.20;99.90
23081;DHT22;72373;50.562;8.498;2024-02-15T08:50:52;11.30;99.90
23081;DHT22;72373;50.562;8.498;2024-02-15T08:53:17;11.40;99.90
23081;DHT22;72373;50.562;8.498;2024-02-15T08:55:45;11.40;99.90
23081;DHT22;72373;50.562;8.498;2024-02-15T08:58:10;11.50;99.90
23081;DHT22;72373;50.562;8.498;2024-02-15T09:00:36;11.60;99.90
23081;DHT22;72373;50.562;8.498;2024-02-15T09:03:02;11.70;99.90
23081;DHT22;72373;50.562;8.498;2024-02-15T09:05:28;11.70;99.90
23081;DHT22;72373;50.562;8.498;2024-02-15T09:07:54;11.90;99.90
23081;DHT22;72373;50.562;8.498;2024-02-15T09:10:19;12.00;99.90
23081;DHT22;72373;50.562;8.498;2024-02-15T09:12:48;12.10;99.90
23081;DHT22;72373;50.562;8.498;2024-02-15T09:15:14;12.40;99.90
23081;DHT22;72373;50.562;8.498;2024-02-15T09:17:41;12.60;99.90
23081;DHT22;72373;50.562;8.498;2024-02-15T09:20:07;12.40;99.90
23081;DHT22;72373;50.562;8.498;2024-02-15T09:22:34;12.50;99.90
23081;DHT22;72373;50.562;8.498;2024-02-15T09:25:04;12.50;99.90
23081;DHT22;72373;50.562;8.498;2024-02-15T09:27:29;12.50;99.90
23081;DHT22;72373;50.562;8.498;2024-02-15T09:29:55;12.60;99.90
23081;DHT22;72373;50.562;8.498;2024-02-15T09:32:21;12.30;99.90
23081;DHT22;72373;50.562;8.498;2024-02-15T09:34:47;12.80;99.90
23081;DHT22;72373;50.562;8.498;2024-02-15T09:37:13;12.70;99.90
23081;DHT22;72373;50.562;8.498;2024-02-15T09:39:39;12.80;99.90
23081;DHT22;72373;50.562;8.498;2024-02-15T09:42:05;12.90;99.90
23081;DHT22;72373;50.562;8.498;2024-02-15T09:44:30;12.80;99.90
23081;DHT22;72373;50.562;8.498;2024-02-15T09:47:02;12.80;99.90
23081;DHT22;72373;50.562;8.498;2024-02-15T09:49:38;13.00;99.90
23081;DHT22;72373;50.562;8.498;2024-02-15T09:52:06;12.90;99.90
23081;DHT22;72373;50.562;8.498;2024-02-15T09:54:33;13.00;99.90
23081;DHT22;72373;50.562;8.498;2024-02-15T09:57:01;13.10;99.90
23081;DHT22;72373;50.562;8.498;2024-02-15T09:59:26;13.20;99.90
23081;DHT22;72373;50.562;8.498;2024-02-15T10:01:56;13.10;99.90
23081;DHT22;72373;50.562;8.498;2024-02-15T10:04:23;13.10;99.90
23081;DHT22;72373;50.562;8.498;2024-02-15T10:06:51;13.30;99.90
23081;DHT22;72373;50.562;8.498;2024-02-15T10:09:30;13.50;99.90
23081;DHT22;72373;50.562;8.498;2024-02-15T10:11:57;13.70;99.90
23081;DHT22;72373;50.562;8.498;2024-02-15T10:14:24;13.90;99.90
23081;DHT22;72373;50.562;8.498;2024-02-15T10:16:49;13.80;99.90
23081;DHT22;72373;50.562;8.498;2024-02-15T10:19:15;14.20;99.90
23081;DHT22;72373;50.562;8.498;2024-02-15T10:21:42;14.80;99.90
23081;DHT22;72373;50.562;8.498;2024-02-15T10:24:08;15.50;99.90
23081;DHT22;72373;50.562;8.498;2024-02-15T10:26:35;16.50;99.90
23081;DHT22;72373;50.562;8.498;2024-02-15T10:29:05;17.20;99.90
23081;DHT22;72373;50.562;8.498;2024-02-15T10:31:55;18.30;99.90
23081;DHT22;72373;50.562;8.498;2024-02-15T10:34:20;19.00;99.90
23081;DHT22;72373;50.562;8.498;2024-02-15T10:36:46;19.00;99.90
23081;DHT22;72373;50.562;8.498;2024-02-15T10:39:16;18.90;99.90
23081;DHT22;72373;50.562;8.498;2024-02-15T10:41:54;18.60;99.90
23081;DHT22;72373;50.562;8.498;2024-02-15T10:44:24;18.40;99.90
23081;DHT22;72373;50.562;8.498;2024-02-15T10:46:52;18.30;99.90
23081;DHT22;72373;50.562;8.498;2024-02-15T10:49:22;18.20;99.90
23081;DHT22;72373;50.562;8.498;2024-02-15T10:51:55;18.50;99.90
23081;DHT22;72373;50.562;8.498;2024-02-15T10:57:06;18.60;99.90
23081;DHT22;72373;50.562;8.498;2024-02-15T10:59:34;17.90;99.90
23081;DHT22;72373;50.562;8.498;2024-02-15T11:02:15;16.80;99.90
23081;DHT22;72373;50.562;8.498;2024-02-15T11:04:46;16.70;99.90
23081;DHT22;72373;50.562;8.498;2024-02-15T11:07:13;16.20;99.90
23081;DHT22;72373;50.562;8.498;2024-02-15T11:09:39;16.00;99.90
23081;DHT22;72373;50.562;8.498;2024-02-15T11:12:06;15.40;99.90
23081;DHT22;72373;50.562;8.498;2024-02-15T11:14:32;15.50;99.90
23081;DHT22;72373;50.562;8.498;2024-02-15T11:17:01;15.50;99.90
23081;DHT22;72373;50.562;8.498;2024-02-15T11:22:01;15.80;99.90
23081;DHT22;72373;50.562;8.498;2024-02-15T11:24:30;16.20;99.90
23081;DHT22;72373;50.562;8.498;2024-02-15T11:27:01;16.00;99.90
23081;DHT22;72373;50.562;8.498;2024-02-15T11:32:41;16.20;99.90
23081;DHT22;72373;50.562;8.498;2024-02-15T11:35:16;15.90;99.90
23081;DHT22;72373;50.562;8.498;2024-02-15T11:42:53;16.40;99.90
23081;DHT22;72373;50.562;8.498;2024-02-15T11:45:20;16.50;99.90
23081;DHT22;72373;50.562;8.498;2024-02-15T11:47:49;16.60;99.90
23081;DHT22;72373;50.562;8.498;2024-02-15T11:50:17;16.60;99.90
23081;DHT22;72373;50.562;8.498;2024-02-15T11:52:47;16.70;99.90
23081;DHT22;72373;50.562;8.498;2024-02-15T11:55:21;16.80;99.90
23081;DHT22;72373;50.562;8.498;2024-02-15T11:58:00;17.10;99.90
23081;DHT22;72373;50.562;8.498;2024-02-15T12:00:36;17.10;99.90
23081;DHT22;72373;50.562;8.498;2024-02-15T12:03:22;17.20;99.90
23081;DHT22;72373;50.562;8.498;2024-02-15T12:06:07;17.40;99.90
23081;DHT22;72373;50.562;8.498;2024-02-15T12:08:52;18.00;99.90
23081;DHT22;72373;50.562;8.498;2024-02-15T12:11:37;18.70;99.90
23081;DHT22;72373;50.562;8.498;2024-02-15T12:14:22;19.10;99.90
23081;DHT22;72373;50.562;8.498;2024-02-15T12:17:08;19.40;99.90
23081;DHT22;72373;50.562;8.498;2024-02-15T12:19:54;19.60;99.90
23081;DHT22;72373;50.562;8.498;2024-02-15T12:22:25;19.20;99.90
23081;DHT22;72373;50.562;8.498;2024-02-15T12:24:58;19.40;99.90
23081;DHT22;72373;50.562;8.498;2024-02-15T12:27:25;19.10;99.90
23081;DHT22;72373;50.562;8.498;2024-02-15T12:29:56;19.20;99.90
23081;DHT22;72373;50.562;8.498;2024-02-15T12:32:24;19.00;99.90
23081;DHT22;72373;50.562;8.498;2024-02-15T12:34:50;19.00;99.90
23081;DHT22;72373;50.562;8.498;2024-02-15T12:37:22;18.90;99.90
23081;DHT22;72373;50.562;8.498;2024-02-15T12:39:49;18.90;99.90
23081;DHT22;72373;50.562;8.498;2024-02-15T12:42:16;18.90;99.90
23081;DHT22;72373;50.562;8.498;2024-02-15T12:44:48;18.60;99.90
23081;DHT22;72373;50.562;8.498;2024-02-15T12:47:23;18.30;99.90
23081;DHT22;72373;50.562;8.498;2024-02-15T12:49:50;18.10;99.90
23081;DHT22;72373;50.562;8.498;2024-02-15T12:52:38;18.00;99.90
23081;DHT22;72373;50.562;8.498;2024-02-15T12:55:09;17.70;99.90
23081;DHT22;72373;50.562;8.498;2024-02-15T12:57:35;17.60;99.90
23081;DHT22;72373;50.562;8.498;2024-02-15T13:00:01;17.50;99.90
23081;DHT22;72373;50.562;8.498;2024-02-15T13:02:39;17.30;99.90
23081;DHT22;72373;50.562;8.498;2024-02-15T13:05:05;17.50;99.90
23081;DHT22;72373;50.562;8.498;2024-02-15T13:07:34;17.10;99.90
23081;DHT22;72373;50.562;8.498;2024-02-15T13:10:00;17.00;99.90
23081;DHT22;72373;50.562;8.498;2024-02-15T13:12:25;16.80;99.90
23081;DHT22;72373;50.562;8.498;2024-02-15T13:14:51;16.70;99.90
23081;DHT22;72373;50.562;8.498;2024-02-15T13:17:16;16.50;99.90
23081;DHT22;72373;50.562;8.498;2024-02-15T13:19:48;16.30;99.90
23081;DHT22;72373;50.562;8.498;2024-02-15T13:22:15;16.00;99.90
23081;DHT22;72373;50.562;8.498;2024-02-15T13:24:44;16.30;99.90
23081;DHT22;72373;50.562;8.498;2024-02-15T13:27:09;16.20;99.90
23081;DHT22;72373;50.562;8.498;2024-02-15T13:29:38;16.10;99.90
23081;DHT22;72373;50.562;8.498;2024-02-15T13:32:06;16.10;99.90
23081;DHT22;72373;50.562;8.498;2024-02-15T13:34:32;16.10;99.90
23081;DHT22;72373;50.562;8.498;2024-02-15T13:36:58;16.10;99.90
23081;DHT22;72373;50.562;8.498;2024-02-15T13:39:28;16.20;99.90
23081;DHT22;72373;50.562;8.498;2024-02-15T13:41:59;16.20;99.90
23081;DHT22;72373;50.562;8.498;2024-02-15T13:44:25;16.10;99.90
23081;DHT22;72373;50.562;8.498;2024-02-15T13:46:51;16.10;99.90
23081;DHT22;72373;50.562;8.498;2024-02-15T13:49:16;16.10;99.90
23081;DHT22;72373;50.562;8.498;2024-02-15T13:51:42;16.10;99.90
23081;DHT22;72373;50.562;8.498;2024-02-15T13:54:08;16.10;99.90
23081;DHT22;72373;50.562;8.498;2024-02-15T13:56:34;16.10;99.90
23081;DHT22;72373;50.562;8.498;2024-02-15T13:58:59;16.10;99.90
23081;DHT22;72373;50.562;8.498;2024-02-15T14:01:25;16.20;99.90
23081;DHT22;72373;50.562;8.498;2024-02-15T14:03:51;16.20;99.90
23081;DHT22;72373;50.562;8.498;2024-02-15T14:06:19;16.10;99.90
23081;DHT22;72373;50.562;8.498;2024-02-15T14:08:45;16.10;99.90
23081;DHT22;72373;50.562;8.498;2024-02-15T14:11:12;16.10;99.90
23081;DHT22;72373;50.562;8.498;2024-02-15T14:13:37;16.00;99.90
23081;DHT22;72373;50.562;8.498;2024-02-15T14:16:04;16.00;99.90
23081;DHT22;72373;50.562;8.498;2024-02-15T14:18:31;16.00;99.90
23081;DHT22;72373;50.562;8.498;2024-02-15T14:20:56;16.00;99.90
23081;DHT22;72373;50.562;8.498;2024-02-15T14:23:22;16.20;99.90
23081;DHT22;72373;50.562;8.498;2024-02-15T14:25:47;16.10;99.90
23081;DHT22;72373;50.562;8.498;2024-02-15T14:28:15;16.00;99.90
23081;DHT22;72373;50.562;8.498;2024-02-15T14:30:41;16.00;99.90
23081;DHT22;72373;50.562;8.498;2024-02-15T14:33:25;15.90;99.90
23081;DHT22;72373;50.562;8.498;2024-02-15T14:35:51;15.90;99.90
23081;DHT22;72373;50.562;8.498;2024-02-15T14:38:21;15.90;99.90
23081;DHT22;72373;50.562;8.498;2024-02-15T14:40:48;15.90;99.90
23081;DHT22;72373;50.562;8.498;2024-02-15T14:43:20;15.90;99.90
23081;DHT22;72373;50.562;8.498;2024-02-15T14:45:46;15.80;99.90
23081;DHT22;72373;50.562;8.498;2024-02-15T14:48:12;15.70;99.90
23081;DHT22;72373;50.562;8.498;2024-02-15T14:50:39;15.70;99.90
23081;DHT22;72373;50.562;8.498;2024-02-15T14:53:05;15.70;99.90
23081;DHT22;72373;50.562;8.498;2024-02-15T14:55:33;15.70;99.90
23081;DHT22;72373;50.562;8.498;2024-02-15T14:57:58;15.60;99.90
23081;DHT22;72373;50.562;8.498;2024-02-15T15:00:24;15.60;99.90
23081;DHT22;72373;50.562;8.498;2024-02-15T15:02:52;15.60;99.90
23081;DHT22;72373;50.562;8.498;2024-02-15T15:05:18;15.50;99.90
23081;DHT22;72373;50.562;8.498;2024-02-15T15:08:02;15.50;99.90
23081;DHT22;72373;50.562;8.498;2024-02-15T15:10:47;15.40;99.90
23081;DHT22;72373;50.562;8.498;2024-02-15T15:13:34;15.40;99.90
23081;DHT22;72373;50.562;8.498;2024-02-15T15:16:00;15.40;99.90
23081;DHT22;72373;50.562;8.498;2024-02-15T15:18:28;15.40;99.90
23081;DHT22;72373;50.562;8.498;2024-02-15T15:20:55;15.40;99.90
23081;DHT22;72373;50.562;8.498;2024-02-15T15:23:20;15.30;99.90
23081;DHT22;72373;50.562;8.498;2024-02-15T15:25:47;15.30;99.90
23081;DHT22;72373;50.562;8.498;2024-02-15T15:28:13;15.30;99.90
23081;DHT22;72373;50.562;8.498;2024-02-15T15:30:39;15.20;99.90
23081;DHT22;72373;50.562;8.498;2024-02-15T15:33:05;15.20;99.90
23081;DHT22;72373;50.562;8.498;2024-02-15T15:35:32;15.10;99.90
23081;DHT22;72373;50.562;8.498;2024-02-15T15:38:00;15.00;99.90
23081;DHT22;72373;50.562;8.498;2024-02-15T15:40:26;15.00;99.90
23081;DHT22;72373;50.562;8.498;2024-02-15T15:42:52;15.00;99.90
23081;DHT22;72373;50.562;8.498;2024-02-15T15:45:18;14.90;99.90
23081;DHT22;72373;50.562;8.498;2024-02-15T15:47:43;14.80;99.90
23081;DHT22;72373;50.562;8.498;2024-02-15T15:50:09;14.80;99.90
23081;DHT22;72373;50.562;8.498;2024-02-15T15:52:38;14.70;99.90
23081;DHT22;72373;50.562;8.498;2024-02-15T15:55:04;14.70;99.90
23081;DHT22;72373;50.562;8.498;2024-02-15T15:57:30;14.90;99.90
23081;DHT22;72373;50.562;8.498;2024-02-15T16:00:01;14.70;99.90
23081;DHT22;72373;50.562;8.498;2024-02-15T16:02:28;14.60;99.90
23081;DHT22;72373;50.562;8.498;2024-02-15T16:04:53;14.70;99.90
23081;DHT22;72373;50.562;8.498;2024-02-15T16:07:21;14.70;99.90
23081;DHT22;72373;50.562;8.498;2024-02-15T16:09:49;14.60;99.90